createdAt,value
2018-06-17T00:00:02.991Z,17.90
2018-06-17T00:02:30.447Z,17.80
2018-06-17T00:04:58.199Z,17.70
2018-06-17T00:07:25.651Z,17.80
2018-06-17T00:09:53.128Z,17.70
2018-06-17T00:12:20.596Z,17.80
2018-06-17T00:14:48.068Z,17.80
2018-06-17T00:17:15.510Z,18.00
2018-06-17T00:19:42.978Z,17.80
2018-06-17T00:22:10.472Z,17.70
2018-06-17T00:24:37.930Z,17.60
2018-06-17T00:27:05.495Z,17.60
2018-06-17T00:29:32.953Z,17.50
2018-06-17T00:32:00.403Z,17.40
2018-06-17T00:34:27.872Z,17.50
2018-06-17T00:36:55.327Z,17.60
2018-06-17T00:39:22.788Z,17.60
2018-06-17T00:41:50.240Z,17.50
2018-06-17T00:44:17.708Z,17.40
2018-06-17T00:46:45.156Z,17.60
2018-06-17T00:49:13.836Z,17.50
2018-06-17T00:51:41.288Z,17.60
2018-06-17T00:54:08.746Z,17.40
2018-06-17T00:56:36.970Z,17.40
2018-06-17T00:59:04.418Z,17.40
2018-06-17T01:01:31.892Z,17.40
2018-06-17T01:03:59.339Z,17.40
2018-06-17T01:06:26.807Z,17.40
2018-06-17T01:08:54.267Z,17.40
2018-06-17T01:11:21.726Z,17.40
2018-06-17T01:13:49.213Z,17.30
2018-06-17T01:16:17.247Z,17.30
2018-06-17T01:18:44.694Z,17.40
2018-06-17T01:21:12.927Z,17.50
2018-06-17T01:23:40.396Z,17.50
2018-06-17T01:26:07.856Z,17.50
2018-06-17T01:28:35.327Z,17.50
2018-06-17T01:31:03.546Z,17.40
2018-06-17T01:33:31.067Z,17.50
2018-06-17T01:35:58.542Z,17.40
2018-06-17T01:38:27.499Z,17.20
2018-06-17T01:40:54.973Z,17.20
2018-06-17T01:43:22.435Z,17.30
2018-06-17T01:45:49.898Z,17.50
2018-06-17T01:48:17.354Z,17.30
2018-06-17T01:50:44.820Z,17.30
2018-06-17T01:53:12.391Z,17.20
2018-06-17T01:55:39.847Z,17.30
2018-06-17T01:58:07.318Z,17.20
2018-06-17T02:00:34.879Z,17.40
2018-06-17T02:03:02.387Z,17.40
2018-06-17T02:08:37.200Z,17.30
2018-06-17T02:11:24.365Z,17.30
2018-06-17T02:13:51.820Z,17.20
2018-06-17T02:16:19.286Z,17.20
2018-06-17T02:18:46.728Z,17.10
2018-06-17T02:21:14.197Z,17.30
2018-06-17T02:23:41.660Z,17.20
2018-06-17T02:26:09.124Z,17.20
2018-06-17T02:28:36.596Z,17.40
2018-06-17T02:31:04.042Z,17.30
2018-06-17T02:33:31.525Z,17.30
2018-06-17T02:35:58.978Z,17.30
2018-06-17T02:38:26.449Z,17.20
2018-06-17T02:40:53.927Z,17.20
2018-06-17T02:43:21.521Z,17.20
2018-06-17T02:45:48.944Z,17.20
2018-06-17T02:48:22.263Z,17.20
2018-06-17T02:50:49.704Z,17.20
2018-06-17T02:56:14.027Z,17.20
2018-06-17T02:58:41.480Z,17.30
2018-06-17T03:01:09.728Z,17.30
2018-06-17T03:03:37.191Z,17.30
2018-06-17T03:06:04.661Z,17.10
2018-06-17T03:08:32.119Z,17.20
2018-06-17T03:10:59.583Z,17.20
2018-06-17T03:13:27.050Z,17.10
2018-06-17T03:15:54.524Z,17.10
2018-06-17T03:18:22.094Z,17.20
2018-06-17T03:20:49.531Z,17.20
2018-06-17T03:23:17.011Z,16.90
2018-06-17T03:25:59.347Z,16.90
2018-06-17T03:31:20.836Z,16.90
2018-06-17T03:33:48.295Z,16.90
2018-06-17T03:36:15.761Z,16.90
2018-06-17T03:38:44.026Z,17.00
2018-06-17T03:41:11.493Z,16.90
2018-06-17T03:43:38.964Z,16.90
2018-06-17T03:46:06.436Z,16.80
2018-06-17T03:48:33.900Z,16.80
2018-06-17T03:51:01.371Z,16.70
2018-06-17T03:53:28.830Z,16.90
2018-06-17T03:55:56.287Z,16.90
2018-06-17T03:58:23.754Z,16.90
2018-06-17T04:00:51.222Z,16.80
2018-06-17T04:03:18.684Z,16.90
2018-06-17T04:05:46.908Z,16.90
2018-06-17T04:08:14.410Z,16.80
2018-06-17T04:10:41.857Z,17.00
2018-06-17T04:13:09.311Z,16.90
2018-06-17T04:15:36.782Z,16.90
2018-06-17T04:18:04.254Z,16.80
2018-06-17T04:20:31.731Z,16.80
2018-06-17T04:22:59.189Z,16.90
2018-06-17T04:25:26.706Z,17.00
2018-06-17T04:27:54.110Z,16.90
2018-06-17T04:30:21.971Z,16.90
2018-06-17T04:32:49.420Z,16.90
2018-06-17T04:35:16.884Z,16.80
2018-06-17T04:37:44.449Z,17.00
2018-06-17T04:40:12.086Z,16.90
2018-06-17T04:42:40.300Z,16.80
2018-06-17T04:45:07.771Z,16.80
2018-06-17T04:47:35.335Z,16.80
2018-06-17T04:50:02.788Z,16.90
2018-06-17T04:52:30.246Z,17.00
2018-06-17T04:54:57.725Z,17.00
2018-06-17T04:57:25.196Z,16.80
2018-06-17T04:59:52.657Z,16.80
2018-06-17T05:02:20.192Z,16.80
2018-06-17T05:04:47.755Z,17.00
2018-06-17T05:07:15.207Z,17.00
2018-06-17T05:09:42.682Z,17.00
2018-06-17T05:12:10.151Z,16.90
2018-06-17T05:14:37.596Z,16.80
2018-06-17T05:17:05.075Z,16.70
2018-06-17T05:19:32.527Z,16.70
2018-06-17T05:22:00.099Z,16.60
2018-06-17T05:24:27.658Z,16.70
2018-06-17T05:26:55.147Z,16.80
2018-06-17T05:29:22.606Z,16.70
2018-06-17T05:31:50.871Z,16.70
2018-06-17T05:34:18.330Z,16.70
2018-06-17T05:36:46.170Z,16.70
2018-06-17T05:39:13.664Z,16.70
2018-06-17T05:41:41.125Z,16.80
2018-06-17T05:44:08.580Z,16.90
2018-06-17T05:46:36.031Z,16.90
2018-06-17T05:49:03.516Z,16.80
2018-06-17T05:51:30.983Z,16.90
2018-06-17T05:53:58.453Z,16.90
2018-06-17T05:56:25.911Z,16.80
2018-06-17T05:58:53.461Z,16.80
2018-06-17T06:01:20.929Z,16.90
2018-06-17T06:03:48.496Z,16.80
2018-06-17T06:06:15.949Z,16.70
2018-06-17T06:08:43.415Z,16.80
2018-06-17T06:11:10.876Z,16.90
2018-06-17T06:13:38.446Z,16.90
2018-06-17T06:16:06.306Z,16.80
2018-06-17T06:18:33.749Z,16.80
2018-06-17T06:21:01.211Z,16.90
2018-06-17T06:23:28.675Z,17.00
2018-06-17T06:25:56.204Z,17.00
2018-06-17T06:28:24.424Z,17.00
2018-06-17T06:30:51.964Z,17.00
2018-06-17T06:33:19.390Z,17.00
2018-06-17T06:35:47.607Z,17.10
2018-06-17T06:38:15.076Z,17.00
2018-06-17T06:40:42.542Z,17.10
2018-06-17T06:43:10.012Z,17.10
2018-06-17T06:45:37.539Z,17.10
2018-06-17T06:48:05.046Z,17.10
2018-06-17T06:50:32.611Z,16.90
2018-06-17T06:53:00.075Z,16.90
2018-06-17T06:55:27.549Z,16.80
2018-06-17T06:57:55.104Z,17.00
2018-06-17T07:00:22.568Z,16.90
2018-06-17T07:06:14.659Z,17.00
2018-06-17T07:08:54.435Z,16.90
2018-06-17T07:11:21.972Z,16.80
2018-06-17T07:13:50.142Z,16.70
2018-06-17T07:16:41.372Z,16.80
2018-06-17T07:19:09.547Z,16.80
2018-06-17T07:21:37.023Z,16.80
2018-06-17T07:24:05.055Z,16.80
2018-06-17T07:29:46.215Z,16.90
2018-06-17T07:32:13.637Z,17.00
2018-06-17T07:34:41.106Z,16.90
2018-06-17T07:37:08.676Z,17.00
2018-06-17T07:39:36.903Z,16.90
2018-06-17T07:42:04.359Z,16.90
2018-06-17T07:44:31.817Z,16.90
2018-06-17T07:46:59.284Z,16.90
2018-06-17T07:49:38.662Z,16.90
2018-06-17T07:52:32.958Z,16.90
2018-06-17T07:55:00.499Z,17.10
2018-06-17T07:57:27.961Z,17.10
2018-06-17T07:59:55.891Z,17.00
2018-06-17T08:02:23.460Z,17.10
2018-06-17T08:04:51.779Z,17.30
2018-06-17T08:07:19.242Z,17.30
2018-06-17T08:09:46.699Z,17.40
2018-06-17T08:12:14.171Z,17.30
2018-06-17T08:14:41.632Z,17.20
2018-06-17T08:17:09.099Z,17.20
2018-06-17T08:19:36.571Z,17.20
2018-06-17T08:22:04.804Z,17.40
2018-06-17T08:24:32.350Z,17.40
2018-06-17T08:26:59.795Z,17.50
2018-06-17T08:29:28.034Z,17.40
2018-06-17T08:31:55.484Z,17.40
2018-06-17T08:34:22.968Z,17.40
2018-06-17T08:36:50.429Z,17.40
2018-06-17T08:39:17.901Z,17.50
2018-06-17T08:41:46.141Z,17.40
2018-06-17T08:44:13.635Z,17.40
2018-06-17T08:46:41.092Z,17.40
2018-06-17T08:49:08.651Z,17.50
2018-06-17T08:51:36.208Z,17.40
2018-06-17T08:54:03.775Z,17.50
2018-06-17T08:56:31.253Z,17.50
2018-06-17T08:58:59.552Z,17.40
2018-06-17T09:01:27.776Z,17.50
2018-06-17T09:03:55.285Z,17.50
2018-06-17T09:06:23.504Z,17.50
2018-06-17T09:08:50.973Z,17.50
2018-06-17T09:11:18.452Z,17.60
2018-06-17T09:13:45.899Z,17.60
2018-06-17T09:16:13.403Z,17.80
2018-06-17T09:18:40.957Z,17.80
2018-06-17T09:21:08.427Z,17.80
2018-06-17T09:23:35.974Z,17.70
2018-06-17T09:26:03.503Z,17.70
2018-06-17T09:28:30.955Z,17.70
2018-06-17T09:30:58.433Z,17.80
2018-06-17T09:33:25.917Z,17.90
2018-06-17T09:35:53.373Z,17.80
2018-06-17T09:38:20.827Z,17.90
2018-06-17T09:40:48.307Z,17.90
2018-06-17T09:43:16.482Z,18.00
2018-06-17T09:45:44.002Z,18.20
2018-06-17T09:48:12.231Z,18.60
2018-06-17T09:50:39.691Z,18.60
2018-06-17T09:53:07.204Z,18.70
2018-06-17T09:55:35.441Z,18.70
2018-06-17T09:58:03.012Z,18.60
2018-06-17T10:00:30.494Z,18.60
2018-06-17T10:02:58.058Z,18.50
2018-06-17T10:05:26.360Z,18.50
2018-06-17T10:07:53.881Z,18.50
2018-06-17T10:10:22.149Z,18.50
2018-06-17T10:12:49.734Z,18.50
2018-06-17T10:15:17.988Z,18.60
2018-06-17T10:17:46.857Z,18.60
2018-06-17T10:20:14.361Z,18.70
2018-06-17T10:22:41.840Z,18.70
2018-06-17T10:25:09.379Z,18.80
2018-06-17T10:27:36.843Z,18.80
2018-06-17T10:30:04.315Z,18.80
2018-06-17T10:32:31.784Z,18.80
2018-06-17T10:34:59.292Z,18.70
2018-06-17T10:37:26.736Z,18.70
2018-06-17T10:39:55.029Z,18.80
2018-06-17T10:42:22.484Z,18.80
2018-06-17T10:44:50.729Z,18.90
2018-06-17T10:47:18.181Z,18.90
2018-06-17T10:49:45.665Z,19.00
2018-06-17T10:52:13.929Z,19.10
2018-06-17T10:54:41.393Z,19.00
2018-06-17T10:57:09.623Z,19.00
2018-06-17T10:59:37.083Z,19.00
2018-06-17T11:02:04.543Z,19.00
2018-06-17T11:04:32.004Z,19.10
2018-06-17T11:06:59.678Z,19.10
2018-06-17T11:09:27.183Z,19.10
2018-06-17T11:11:54.740Z,19.20
2018-06-17T11:14:22.322Z,19.20
2018-06-17T11:16:49.871Z,19.40
2018-06-17T11:19:17.435Z,19.40
2018-06-17T11:21:45.005Z,19.30
2018-06-17T11:24:12.467Z,19.30
2018-06-17T11:26:40.026Z,19.30
2018-06-17T11:29:07.486Z,19.40
2018-06-17T11:31:34.948Z,19.40
2018-06-17T11:34:03.037Z,19.40
2018-06-17T11:36:30.491Z,19.50
2018-06-17T11:38:58.133Z,19.60
2018-06-17T11:41:26.347Z,19.70
2018-06-17T11:43:53.909Z,19.70
2018-06-17T11:46:21.461Z,19.70
2018-06-17T11:48:49.039Z,19.70
2018-06-17T11:51:16.498Z,19.70
2018-06-17T11:53:43.963Z,19.70
2018-06-17T11:56:11.430Z,19.70
2018-06-17T11:58:38.884Z,19.80
2018-06-17T12:01:06.336Z,19.90
2018-06-17T12:03:33.795Z,20.00
2018-06-17T12:06:01.255Z,20.00
2018-06-17T12:08:28.825Z,20.10
2018-06-17T12:10:56.399Z,20.20
2018-06-17T12:13:23.868Z,20.20
2018-06-17T12:15:52.110Z,20.10
2018-06-17T12:18:19.562Z,20.10
2018-06-17T12:20:47.047Z,20.10
2018-06-17T12:23:14.539Z,20.20
2018-06-17T12:25:42.797Z,20.40
2018-06-17T12:28:11.035Z,20.40
2018-06-17T12:30:38.504Z,20.40
2018-06-17T12:33:05.959Z,20.30
2018-06-17T12:35:33.416Z,20.30
2018-06-17T12:38:00.892Z,20.40
2018-06-17T12:40:29.396Z,20.40
2018-06-17T12:42:57.176Z,20.40
2018-06-17T12:45:24.654Z,20.50
2018-06-17T12:47:52.112Z,20.50
2018-06-17T12:50:19.661Z,20.60
2018-06-17T12:52:47.128Z,20.60
2018-06-17T12:55:14.705Z,20.70
2018-06-17T12:57:42.203Z,20.70
2018-06-17T13:00:11.162Z,20.60
2018-06-17T13:02:38.619Z,20.50
2018-06-17T13:05:06.091Z,20.60
2018-06-17T13:07:34.355Z,20.60
2018-06-17T13:10:01.932Z,20.60
2018-06-17T13:12:30.937Z,20.80
2018-06-17T13:14:58.479Z,20.80
2018-06-17T13:17:25.948Z,20.90
2018-06-17T13:19:53.391Z,20.90
2018-06-17T13:22:20.879Z,20.80
2018-06-17T13:24:48.351Z,20.90
2018-06-17T13:27:17.429Z,20.70
2018-06-17T13:29:44.924Z,20.70
2018-06-17T13:32:13.146Z,20.60
2018-06-17T13:34:40.636Z,20.60
2018-06-17T13:37:08.098Z,20.40
2018-06-17T13:39:35.555Z,20.50
2018-06-17T13:42:04.150Z,20.70
2018-06-17T13:44:31.615Z,20.70
2018-06-17T13:46:59.176Z,20.60
2018-06-17T13:49:26.619Z,20.70
2018-06-17T13:51:54.110Z,20.50
2018-06-17T13:54:21.574Z,20.60
2018-06-17T13:56:49.126Z,20.80
2018-06-17T13:59:16.584Z,20.90
2018-06-17T14:01:44.055Z,20.80
2018-06-17T14:04:11.507Z,21.00
2018-06-17T14:06:39.077Z,20.90
2018-06-17T14:09:06.535Z,21.00
2018-06-17T14:11:34.007Z,21.00
2018-06-17T14:14:02.287Z,21.00
2018-06-17T14:16:29.837Z,21.00
2018-06-17T14:18:57.400Z,21.00
2018-06-17T14:21:24.872Z,21.00
2018-06-17T14:23:53.675Z,20.90
2018-06-17T14:26:21.235Z,20.80
2018-06-17T14:28:48.789Z,20.80
2018-06-17T14:31:16.287Z,21.00
2018-06-17T14:33:43.820Z,21.00
2018-06-17T14:36:11.401Z,21.10
2018-06-17T14:38:40.367Z,20.90
2018-06-17T14:41:07.831Z,21.00
2018-06-17T14:46:30.475Z,21.40
2018-06-17T14:51:52.331Z,21.30
2018-06-17T14:54:19.791Z,21.30
2018-06-17T14:56:47.269Z,21.10
2018-06-17T14:59:14.719Z,21.20
2018-06-17T15:01:42.179Z,21.00
2018-06-17T15:04:09.744Z,21.20
2018-06-17T15:06:37.325Z,21.10
2018-06-17T15:09:04.940Z,20.90
2018-06-17T15:11:32.415Z,21.00
2018-06-17T15:13:59.919Z,20.90
2018-06-17T15:16:27.387Z,21.00
2018-06-17T15:18:54.892Z,21.10
2018-06-17T15:21:22.352Z,21.00
2018-06-17T15:23:49.807Z,21.10
2018-06-17T15:26:17.271Z,21.30
2018-06-17T15:28:44.797Z,20.90
2018-06-17T15:31:13.913Z,21.30
2018-06-17T15:36:50.465Z,21.30
2018-06-17T15:39:18.038Z,21.30
2018-06-17T15:41:47.112Z,21.20
2018-06-17T15:44:15.714Z,21.20
2018-06-17T15:46:43.125Z,21.50
2018-06-17T15:49:10.595Z,21.70
2018-06-17T15:51:38.098Z,21.60
2018-06-17T15:54:05.591Z,21.50
2018-06-17T15:56:33.830Z,21.30
2018-06-17T15:59:01.284Z,21.30
2018-06-17T16:01:28.762Z,21.40
2018-06-17T16:03:56.988Z,21.80
2018-06-17T16:06:24.476Z,21.80
2018-06-17T16:08:51.959Z,21.80
2018-06-17T16:11:19.519Z,21.60
2018-06-17T16:14:02.792Z,21.50
2018-06-17T16:19:40.451Z,21.60
2018-06-17T16:22:08.004Z,21.50
2018-06-17T16:24:35.710Z,21.30
2018-06-17T16:27:03.935Z,21.50
2018-06-17T16:29:31.415Z,21.50
2018-06-17T16:31:58.975Z,21.60
2018-06-17T16:34:27.521Z,21.50
2018-06-17T16:36:55.034Z,21.40
2018-06-17T16:39:22.500Z,21.70
2018-06-17T16:41:50.733Z,21.70
2018-06-17T16:44:19.410Z,21.90
2018-06-17T16:46:46.881Z,21.80
2018-06-17T16:49:14.331Z,21.60
2018-06-17T16:51:41.791Z,21.50
2018-06-17T16:54:24.149Z,21.30
2018-06-17T16:56:57.215Z,21.00
2018-06-17T17:02:21.618Z,21.50
2018-06-17T17:04:49.193Z,21.50
2018-06-17T17:07:17.036Z,21.40
2018-06-17T17:09:44.499Z,21.30
2018-06-17T17:12:11.967Z,21.30
2018-06-17T17:14:39.448Z,21.20
2018-06-17T17:17:06.923Z,21.00
2018-06-17T17:19:34.539Z,21.30
2018-06-17T17:22:02.037Z,21.20
2018-06-17T17:24:29.509Z,21.30
2018-06-17T17:26:56.977Z,21.10
2018-06-17T17:29:24.548Z,21.10
2018-06-17T17:31:52.010Z,21.30
2018-06-17T17:34:25.276Z,21.30
2018-06-17T17:40:05.795Z,21.40
2018-06-17T17:42:34.139Z,21.50
2018-06-17T17:45:01.628Z,21.50
2018-06-17T17:47:29.091Z,21.20
2018-06-17T17:49:56.620Z,21.30
2018-06-17T17:52:24.097Z,21.40
2018-06-17T17:54:51.657Z,21.30
2018-06-17T17:57:19.125Z,21.10
2018-06-17T17:59:46.580Z,21.00
2018-06-17T18:02:14.044Z,21.30
2018-06-17T18:04:41.511Z,21.50
2018-06-17T18:07:09.054Z,21.10
2018-06-17T18:09:36.696Z,20.80
2018-06-17T18:12:04.178Z,20.60
2018-06-17T18:14:31.661Z,20.60
2018-06-17T18:16:59.116Z,21.00
2018-06-17T18:19:26.581Z,21.10
2018-06-17T18:21:54.140Z,21.10
2018-06-17T18:24:21.713Z,21.00
2018-06-17T18:26:54.836Z,21.20
2018-06-17T18:29:28.895Z,21.10
2018-06-17T18:31:56.350Z,21.10
2018-06-17T18:37:18.012Z,19.80
2018-06-17T18:39:45.467Z,19.80
2018-06-17T18:42:12.945Z,19.10
2018-06-17T18:44:40.503Z,18.70
2018-06-17T18:47:08.058Z,18.50
2018-06-17T18:49:35.514Z,18.60
2018-06-17T18:52:02.975Z,18.70
2018-06-17T18:54:31.553Z,18.80
2018-06-17T18:56:59.043Z,18.40
2018-06-17T18:59:26.511Z,18.50
2018-06-17T19:01:53.980Z,18.70
2018-06-17T19:04:22.238Z,18.40
2018-06-17T19:06:49.698Z,18.40
2018-06-17T19:09:17.170Z,18.40
2018-06-17T19:12:02.452Z,18.40
2018-06-17T19:14:30.688Z,18.50
2018-06-17T19:17:13.035Z,18.50
2018-06-17T19:19:41.297Z,18.40
2018-06-17T19:22:08.873Z,18.40
2018-06-17T19:24:36.333Z,18.50
2018-06-17T19:27:04.551Z,18.50
2018-06-17T19:29:32.016Z,18.50
2018-06-17T19:31:59.483Z,18.50
2018-06-17T19:34:26.956Z,18.50
2018-06-17T19:36:54.430Z,18.50
2018-06-17T19:39:21.895Z,18.10
2018-06-17T19:41:49.528Z,18.30
2018-06-17T19:44:16.980Z,18.10
2018-06-17T19:46:44.437Z,18.10
2018-06-17T19:49:11.944Z,18.30
2018-06-17T19:54:54.974Z,18.00
2018-06-17T19:57:40.156Z,18.00
2018-06-17T20:00:24.062Z,18.10
2018-06-17T20:02:51.540Z,18.10
2018-06-17T20:05:19.000Z,18.00
2018-06-17T20:07:46.500Z,18.00
2018-06-17T20:10:14.755Z,17.90
2018-06-17T20:12:42.219Z,17.80
2018-06-17T20:15:09.668Z,17.90
2018-06-17T20:17:37.231Z,17.80
2018-06-17T20:20:04.800Z,17.90
2018-06-17T20:22:33.037Z,17.70
2018-06-17T20:25:00.496Z,17.70
2018-06-17T20:27:27.988Z,17.90
2018-06-17T20:29:55.460Z,17.80
2018-06-17T20:32:22.930Z,17.80
2018-06-17T20:35:07.204Z,17.80
2018-06-17T20:37:52.294Z,18.00
2018-06-17T20:40:19.739Z,18.00
2018-06-17T20:42:53.007Z,18.10
2018-06-17T20:45:21.975Z,17.90
2018-06-17T20:47:49.453Z,17.90
2018-06-17T20:50:16.921Z,18.20
2018-06-17T20:52:44.388Z,18.30
2018-06-17T20:55:11.863Z,18.20
2018-06-17T20:57:40.087Z,17.80
2018-06-17T21:00:07.571Z,17.80
2018-06-17T21:02:35.031Z,17.80
2018-06-17T21:05:02.488Z,17.70
2018-06-17T21:07:29.966Z,17.80
2018-06-17T21:09:57.522Z,18.00
2018-06-17T21:12:24.983Z,17.90
2018-06-17T21:14:52.559Z,18.00
2018-06-17T21:17:21.061Z,18.00
2018-06-17T21:19:54.215Z,17.90
2018-06-17T21:22:37.769Z,17.80
2018-06-17T21:27:58.568Z,18.00
2018-06-17T21:30:26.036Z,17.90
2018-06-17T21:32:53.600Z,17.70
2018-06-17T21:35:21.154Z,17.50
2018-06-17T21:37:48.631Z,17.60
2018-06-17T21:40:16.090Z,17.60
2018-06-17T21:42:44.124Z,17.60
2018-06-17T21:45:11.630Z,17.60
2018-06-17T21:47:39.108Z,17.60
2018-06-17T21:50:06.592Z,17.50
2018-06-17T21:52:34.827Z,17.80
2018-06-17T21:55:02.398Z,17.80
2018-06-17T21:57:29.875Z,17.50
2018-06-17T21:59:57.415Z,17.50
2018-06-17T22:02:24.989Z,17.60
2018-06-17T22:04:52.446Z,17.60
2018-06-17T22:07:20.011Z,17.50
2018-06-17T22:12:40.802Z,17.60
2018-06-17T22:15:24.081Z,17.60
2018-06-17T22:17:52.322Z,17.60
2018-06-17T22:20:19.778Z,17.50
2018-06-17T22:22:47.352Z,17.50
2018-06-17T22:25:14.920Z,17.50
2018-06-17T22:27:42.480Z,17.80
2018-06-17T22:30:09.939Z,17.60
2018-06-17T22:32:37.436Z,17.60
2018-06-17T22:35:05.689Z,17.50
2018-06-17T22:37:33.243Z,17.50
2018-06-17T22:42:28.183Z,17.30
2018-06-17T22:44:55.743Z,17.60
2018-06-17T22:47:23.190Z,17.50
2018-06-17T22:49:50.662Z,17.60
2018-06-17T22:52:18.123Z,17.40
2018-06-17T22:54:46.412Z,17.30
2018-06-17T22:57:13.869Z,17.20
2018-06-17T22:59:47.143Z,17.20
2018-06-17T23:02:30.417Z,17.20
2018-06-17T23:05:13.540Z,17.40
2018-06-17T23:07:57.450Z,17.40
2018-06-17T23:10:24.908Z,17.40
2018-06-17T23:12:52.464Z,17.40
2018-06-17T23:15:20.028Z,17.40
2018-06-17T23:17:47.590Z,17.40
2018-06-17T23:20:15.147Z,17.50
2018-06-17T23:22:42.628Z,17.40
2018-06-17T23:25:10.077Z,17.30
2018-06-17T23:27:37.555Z,17.40
2018-06-17T23:30:05.012Z,17.50
2018-06-17T23:32:32.472Z,17.40
2018-06-17T23:35:00.397Z,17.40
2018-06-17T23:37:28.009Z,17.60
2018-06-17T23:39:55.480Z,17.50
2018-06-17T23:42:23.024Z,17.50
2018-06-17T23:44:50.599Z,17.40
2018-06-17T23:47:37.916Z,17.10
2018-06-17T23:50:20.879Z,17.20
2018-06-17T23:53:05.030Z,17.20
2018-06-17T23:58:26.932Z,17.00
